Time;durP1;ratioP1;P1;durP2;ratioP2;P2;SDS_P1;SDS_P2;PMS_P1;PMS_P2;Temp;Humidity;BMP_temperature;BMP_pressure;BME280_temperature;BME280_humidity;BME280_pressure;Samples;Min_cycle;Max_cycle;Signal;HPM_P1;HPM_P2
2024/01/30 00:01:10;;;;;;;6.10;5.50;;;;;;;1.89;48.39;96819.41;5016838;28;20230;-73
2024/01/30 00:03:35;;;;;;;5.87;4.83;;;;;;;1.84;48.66;96826.50;5008742;28;20338;-73
2024/01/30 00:06:03;;;;;;;5.13;4.63;;;;;;;1.70;48.97;96825.25;5011376;28;20223;-73
2024/01/30 00:08:28;;;;;;;5.40;4.83;;;;;;;1.84;48.21;96826.50;5013492;28;20190;-73
2024/01/30 00:10:54;;;;;;;5.63;4.83;;;;;;;1.79;48.79;96829.25;5003994;28;20230;-74
2024/01/30 00:13:19;;;;;;;6.60;5.10;;;;;;;1.69;48.46;96828.75;5004037;28;20226;-76
2024/01/30 00:15:45;;;;;;;6.60;5.07;;;;;;;1.71;48.60;96836.47;5004932;28;20223;-76
2024/01/30 00:18:11;;;;;;;6.70;5.17;;;;;;;1.63;48.88;96831.56;5009066;28;20247;-71
2024/01/30 00:20:36;;;;;;;7.90;5.63;;;;;;;1.66;48.82;96831.44;5007765;28;20186;-73
2024/01/30 00:23:02;;;;;;;6.27;5.00;;;;;;;1.61;49.12;96833.34;5001636;28;20209;-72
2024/01/30 00:25:27;;;;;;;5.70;4.87;;;;;;;1.53;49.26;96833.59;5006028;28;20219;-74
2024/01/30 00:27:52;;;;;;;6.73;5.30;;;;;;;1.61;49.19;96838.53;5007244;28;20220;-70
2024/01/30 00:30:18;;;;;;;6.40;5.03;;;;;;;1.62;49.54;96841.97;5002814;28;20214;-74
2024/01/30 00:32:45;;;;;;;6.20;5.20;;;;;;;1.48;49.43;96840.69;5008305;28;20208;-74
2024/01/30 00:35:11;;;;;;;7.40;5.40;;;;;;;1.42;49.80;96845.25;4999832;28;20180;-75
2024/01/30 00:37:36;;;;;;;7.57;5.37;;;;;;;1.43;49.52;96839.16;5000056;28;20250;-72
2024/01/30 00:40:02;;;;;;;6.27;4.93;;;;;;;1.42;49.65;96843.50;5000258;28;20222;-74
2024/01/30 00:42:27;;;;;;;5.20;4.50;;;;;;;1.47;49.06;96838.13;5009700;28;20215;-73
2024/01/30 00:44:53;;;;;;;6.13;5.50;;;;;;;1.53;49.24;96841.38;5006550;28;20306;-75
2024/01/30 00:47:18;;;;;;;5.50;4.77;;;;;;;1.48;49.26;96832.91;5005155;28;20191;-68
2024/01/30 00:49:43;;;;;;;5.47;4.90;;;;;;;1.56;49.28;96837.00;5009574;28;20223;-78
2024/01/30 00:52:09;;;;;;;7.23;4.97;;;;;;;1.46;49.59;96833.88;5010925;28;20262;-73
2024/01/30 00:54:34;;;;;;;6.73;4.90;;;;;;;1.55;49.30;96838.72;5007225;28;20234;-70
2024/01/30 00:57:00;;;;;;;6.40;4.63;;;;;;;1.52;49.55;96824.16;5010589;28;20249;-71
2024/01/30 00:59:25;;;;;;;7.37;5.23;;;;;;;1.58;49.66;96835.19;5009482;28;20187;-70
2024/01/30 01:01:51;;;;;;;7.00;4.83;;;;;;;1.53;49.17;96838.78;5005759;28;20215;-77
2024/01/30 01:04:17;;;;;;;7.30;5.17;;;;;;;1.51;48.90;96824.19;5003531;28;20228;-71
2024/01/30 01:06:43;;;;;;;6.57;5.23;;;;;;;1.39;49.23;96834.97;5000747;28;20244;-72
2024/01/30 01:09:11;;;;;;;6.93;5.00;;;;;;;1.58;49.04;96841.25;5003499;28;20234;-71
2024/01/30 01:11:37;;;;;;;6.90;4.60;;;;;;;1.54;48.94;96822.31;4997805;28;20322;-68
2024/01/30 01:14:03;;;;;;;8.53;6.03;;;;;;;1.35;49.90;96823.84;5010112;28;20207;-70
2024/01/30 01:16:29;;;;;;;8.53;5.43;;;;;;;1.15;51.07;96837.50;5000866;28;20311;-74
2024/01/30 01:18:54;;;;;;;6.60;5.43;;;;;;;1.35;50.52;96834.22;5005846;28;20584;-69
2024/01/30 01:21:20;;;;;;;6.60;4.87;;;;;;;1.38;50.41;96826.34;5015826;28;20234;-69
2024/01/30 01:23:45;;;;;;;7.23;5.57;;;;;;;1.36;50.84;96833.31;5005512;28;20182;-73
2024/01/30 01:26:11;;;;;;;6.33;5.13;;;;;;;1.09;51.83;96840.25;5015172;28;20192;-72
2024/01/30 01:28:36;;;;;;;7.33;5.57;;;;;;;1.19;51.64;96839.06;5010220;28;20286;-71
2024/01/30 01:31:05;;;;;;;7.40;5.53;;;;;;;1.20;51.29;96834.72;5011784;28;20226;-77
2024/01/30 01:33:34;;;;;;;6.77;5.10;;;;;;;1.17;51.36;96838.25;4999788;28;20292;-75
2024/01/30 01:36:02;;;;;;;5.90;4.97;;;;;;;1.11;51.49;96843.66;5021093;28;20229;-71
2024/01/30 01:38:28;;;;;;;5.83;4.93;;;;;;;1.15;51.61;96834.03;5009611;28;20226;-76
2024/01/30 01:40:53;;;;;;;6.97;4.90;;;;;;;1.16;51.84;96838.31;5006517;28;20250;-74
2024/01/30 01:43:19;;;;;;;6.00;4.97;;;;;;;0.88;52.23;96840.06;5003811;28;20212;-71
2024/01/30 01:45:45;;;;;;;6.13;5.10;;;;;;;1.04;51.93;96835.25;5015310;28;20212;-71
2024/01/30 01:48:12;;;;;;;5.97;4.70;;;;;;;0.92;51.73;96840.81;4996870;28;20231;-70
2024/01/30 01:50:38;;;;;;;7.70;4.90;;;;;;;0.99;51.53;96839.72;4985497;28;20199;-69
2024/01/30 01:53:07;;;;;;;6.97;4.70;;;;;;;0.97;51.64;96838.91;5001896;28;20204;-73
2024/01/30 01:55:35;;;;;;;6.30;5.57;;;;;;;0.97;51.57;96838.06;4971555;28;20299;-73
2024/01/30 01:58:01;;;;;;;6.10;5.03;;;;;;;0.86;51.47;96838.41;4988833;28;20230;-78
2024/01/30 02:00:27;;;;;;;6.03;4.87;;;;;;;0.81;52.38;96848.91;4987875;28;20228;-71
2024/01/30 02:02:54;;;;;;;5.87;5.23;;;;;;;0.66;52.29;96837.25;4982950;28;20215;-76
2024/01/30 02:05:21;;;;;;;5.80;4.77;;;;;;;0.66;52.37;96839.00;4993003;28;20241;-74
2024/01/30 02:07:46;;;;;;;5.50;4.70;;;;;;;0.74;52.26;96846.53;4996361;28;20215;-74
2024/01/30 02:10:12;;;;;;;7.30;5.00;;;;;;;0.78;51.82;96845.56;4990385;28;20696;-76
2024/01/30 02:12:38;;;;;;;5.90;4.80;;;;;;;0.66;51.41;96845.03;4995087;28;20227;-70
2024/01/30 02:15:04;;;;;;;8.07;5.23;;;;;;;0.74;51.98;96844.81;4994643;28;20235;-77
2024/01/30 02:17:30;;;;;;;6.27;4.57;;;;;;;0.94;51.88;96844.19;4998998;28;20195;-73
2024/01/30 02:19:56;;;;;;;5.47;4.90;;;;;;;0.86;52.40;96844.44;4997603;28;20227;-74
2024/01/30 02:22:22;;;;;;;7.43;4.63;;;;;;;0.85;51.61;96847.06;4996783;28;20238;-72
2024/01/30 02:24:47;;;;;;;5.77;5.17;;;;;;;0.92;51.33;96850.31;4992789;28;20314;-75
2024/01/30 02:27:13;;;;;;;7.10;4.47;;;;;;;0.94;50.91;96838.19;4982947;28;20276;-69
2024/01/30 02:29:38;;;;;;;5.30;4.77;;;;;;;0.80;51.82;96836.88;4982814;28;20260;-75
2024/01/30 02:32:05;;;;;;;5.70;4.50;;;;;;;0.93;51.60;96839.88;4987112;28;20199;-75
2024/01/30 02:34:31;;;;;;;7.40;4.40;;;;;;;1.12;50.69;96847.91;4989845;28;20228;-72
2024/01/30 02:36:56;;;;;;;5.60;4.30;;;;;;;1.01;50.77;96840.50;4994576;28;20286;-71
2024/01/30 02:39:21;;;;;;;5.20;4.43;;;;;;;1.11;50.69;96846.25;5007994;28;20234;-72
2024/01/30 02:41:47;;;;;;;5.00;4.10;;;;;;;1.19;50.75;96838.22;4998284;28;20191;-72
2024/01/30 02:44:12;;;;;;;4.40;3.87;;;;;;;1.20;50.88;96840.75;4987469;28;20184;-71
2024/01/30 02:46:38;;;;;;;4.57;3.80;;;;;;;1.26;50.42;96843.16;4990686;28;20228;-72
2024/01/30 02:49:03;;;;;;;5.23;4.00;;;;;;;1.25;49.96;96849.22;4989600;28;20311;-72
2024/01/30 02:51:28;;;;;;;4.37;3.97;;;;;;;1.17;49.57;96843.44;4998066;28;20275;-72
2024/01/30 02:53:54;;;;;;;6.93;3.87;;;;;;;1.27;49.52;96842.25;4989642;28;20231;-72
2024/01/30 02:56:19;;;;;;;6.10;3.40;;;;;;;1.16;49.68;96843.50;5002132;28;20280;-72
2024/01/30 02:58:45;;;;;;;4.43;3.90;;;;;;;1.29;49.45;96840.47;4993395;28;20318;-71
2024/01/30 03:01:10;;;;;;;5.60;3.50;;;;;;;1.10;49.95;96845.41;4977003;28;20231;-72
2024/01/30 03:03:35;;;;;;;4.80;3.80;;;;;;;1.24;49.48;96837.19;5013404;28;20226;-72
2024/01/30 03:06:01;;;;;;;5.97;4.33;;;;;;;1.29;49.29;96832.69;5022173;28;20338;-72
2024/01/30 03:08:27;;;;;;;4.93;3.50;;;;;;;1.38;49.15;96833.28;5006300;28;20179;-72
2024/01/30 03:10:52;;;;;;;4.00;3.37;;;;;;;1.42;48.97;96838.31;4997163;28;20227;-72
2024/01/30 03:13:18;;;;;;;4.67;3.60;;;;;;;1.44;48.76;96833.06;4984458;28;20241;-72
2024/01/30 03:15:43;;;;;;;4.27;3.50;;;;;;;1.48;48.52;96837.25;4987446;28;20256;-72
2024/01/30 03:18:09;;;;;;;5.77;3.63;;;;;;;1.42;48.77;96835.72;4989139;28;20232;-71
2024/01/30 03:20:34;;;;;;;4.60;3.50;;;;;;;1.50;48.19;96835.47;4985176;28;20207;-72
2024/01/30 03:23:00;;;;;;;6.50;4.27;;;;;;;1.45;48.31;96830.44;4990680;28;20274;-72
2024/01/30 03:25:25;;;;;;;5.00;3.57;;;;;;;1.48;48.44;96824.31;4992584;28;20227;-72
2024/01/30 03:27:51;;;;;;;5.90;3.47;;;;;;;1.41;48.28;96831.41;4984325;28;20264;-72
2024/01/30 03:30:17;;;;;;;6.20;4.20;;;;;;;1.19;48.71;96828.69;4984258;28;20290;-72
2024/01/30 03:32:43;;;;;;;5.83;4.10;;;;;;;1.17;48.94;96835.66;4994433;28;20204;-73
2024/01/30 03:35:09;;;;;;;5.20;4.00;;;;;;;1.26;48.87;96829.38;4986519;28;20311;-72
2024/01/30 03:37:34;;;;;;;7.53;3.67;;;;;;;1.23;49.33;96825.13;4987130;28;20306;-73
2024/01/30 03:39:59;;;;;;;5.40;3.80;;;;;;;1.34;48.67;96827.34;4992719;28;20307;-73
2024/01/30 03:42:25;;;;;;;6.63;3.70;;;;;;;1.40;48.96;96832.34;5006982;28;20220;-72
2024/01/30 03:44:54;;;;;;;4.23;3.13;;;;;;;1.42;49.17;96815.00;5004182;28;20306;-73
2024/01/30 03:47:21;;;;;;;6.43;3.83;;;;;;;1.38;48.90;96822.91;4991306;28;20183;-73
2024/01/30 03:49:46;;;;;;;4.27;3.67;;;;;;;1.41;48.84;96822.81;4985020;28;20306;-73
2024/01/30 03:52:12;;;;;;;7.40;4.07;;;;;;;1.09;49.78;96816.94;4987194;28;20283;-73
2024/01/30 03:54:37;;;;;;;5.17;3.73;;;;;;;1.03;49.72;96823.16;4979315;28;20224;-72
2024/01/30 03:57:03;;;;;;;3.97;3.57;;;;;;;0.95;49.76;96808.78;4988558;28;20234;-72
2024/01/30 03:59:29;;;;;;;4.67;4.10;;;;;;;0.92;50.23;96814.91;4991114;28;20192;-78
2024/01/30 04:01:54;;;;;;;5.03;4.33;;;;;;;1.01;50.19;96816.34;4967543;28;20254;-74
2024/01/30 04:04:20;;;;;;;5.27;3.90;;;;;;;0.88;50.60;96808.97;4993514;28;20595;-78
2024/01/30 04:06:46;;;;;;;4.50;3.33;;;;;;;1.00;49.95;96822.44;4986230;28;20262;-77
2024/01/30 04:09:13;;;;;;;4.23;3.60;;;;;;;1.05;50.06;96811.03;4987243;28;20247;-78
2024/01/30 04:11:39;;;;;;;5.27;4.13;;;;;;;1.21;49.63;96813.97;4993298;28;20231;-78
2024/01/30 04:14:04;;;;;;;4.40;3.60;;;;;;;1.23;49.48;96804.41;4984529;28;20204;-79
2024/01/30 04:16:29;;;;;;;8.17;4.03;;;;;;;1.13;49.42;96810.78;4994008;28;20238;-77
2024/01/30 04:18:55;;;;;;;5.33;3.73;;;;;;;1.16;49.07;96817.59;4996065;28;20231;-80
2024/01/30 04:21:22;;;;;;;4.40;4.00;;;;;;;1.02;49.50;96812.88;4983611;28;20224;-79
2024/01/30 04:23:48;;;;;;;7.47;4.63;;;;;;;0.99;49.95;96816.41;4982000;28;20184;-81
2024/01/30 04:26:13;;;;;;;5.20;3.77;;;;;;;0.99;49.71;96813.81;4991130;28;20183;-69
2024/01/30 04:28:41;;;;;;;8.93;3.87;;;;;;;1.04;49.67;96809.34;4991320;28;20272;-80
2024/01/30 04:31:07;;;;;;;9.73;4.80;;;;;;;1.20;49.51;96820.00;4991020;28;20231;-71
2024/01/30 04:33:32;;;;;;;5.20;3.77;;;;;;;1.19;49.72;96828.69;4989077;28;20232;-73
2024/01/30 04:35:57;;;;;;;6.00;4.07;;;;;;;1.36;49.54;96825.53;4984211;28;20243;-72
2024/01/30 04:38:23;;;;;;;3.80;3.07;;;;;;;1.39;48.85;96830.66;4990292;28;20192;-72
2024/01/30 04:40:48;;;;;;;5.30;3.53;;;;;;;1.03;49.14;96818.00;4983598;28;20235;-72
2024/01/30 04:43:15;;;;;;;6.00;3.47;;;;;;;1.18;48.82;96824.44;4994388;28;20215;-72
2024/01/30 04:45:41;;;;;;;4.27;3.60;;;;;;;1.24;48.88;96826.81;4992184;28;20227;-71
2024/01/30 04:48:06;;;;;;;3.77;3.37;;;;;;;1.12;49.25;96834.13;4988313;28;20227;-71
2024/01/30 04:50:32;;;;;;;5.67;4.53;;;;;;;1.19;48.75;96831.28;4985609;28;20188;-71
2024/01/30 04:52:57;;;;;;;6.77;3.70;;;;;;;1.21;48.61;96836.44;4999443;28;20207;-73
2024/01/30 04:55:23;;;;;;;5.03;3.53;;;;;;;1.16;48.81;96835.75;4981291;28;20250;-71
2024/01/30 04:57:48;;;;;;;4.43;3.30;;;;;;;1.20;48.83;96840.75;4993482;28;20248;-70
2024/01/30 05:00:14;;;;;;;6.30;3.97;;;;;;;1.03;48.76;96840.47;4988550;28;20252;-73
2024/01/30 05:02:39;;;;;;;5.13;3.20;;;;;;;1.04;49.29;96840.44;4984077;28;20183;-72
2024/01/30 05:05:05;;;;;;;4.27;3.10;;;;;;;0.93;49.61;96857.19;4985547;28;20590;-73
2024/01/30 05:07:30;;;;;;;5.40;3.70;;;;;;;0.76;50.04;96853.38;4993067;28;20215;-72
2024/01/30 05:09:56;;;;;;;7.27;4.87;;;;;;;0.73;49.92;96850.03;4990902;28;20250;-71
2024/01/30 05:12:21;;;;;;;11.87;5.70;;;;;;;0.70;50.67;96844.97;4991399;28;20239;-73
2024/01/30 05:14:46;;;;;;;8.17;4.77;;;;;;;0.69;50.52;96840.66;4993371;28;20184;-72
2024/01/30 05:17:12;;;;;;;8.70;4.87;;;;;;;0.83;50.17;96836.75;4986388;28;20202;-71
2024/01/30 05:19:38;;;;;;;10.23;4.20;;;;;;;0.89;49.94;96843.50;4992699;28;20231;-71
2024/01/30 05:22:04;;;;;;;5.57;3.83;;;;;;;0.56;49.85;96843.63;5002223;28;20250;-72
2024/01/30 05:24:29;;;;;;;5.90;3.97;;;;;;;0.54;50.34;96848.00;4994776;28;20222;-72
2024/01/30 05:26:55;;;;;;;5.17;4.53;;;;;;;0.46;50.47;96844.81;5001820;28;20227;-74
2024/01/30 05:29:20;;;;;;;5.90;4.03;;;;;;;0.78;49.70;96855.94;4989163;28;20343;-73
2024/01/30 05:31:46;;;;;;;6.17;4.30;;;;;;;0.70;49.19;96850.16;4970786;28;20223;-75
2024/01/30 05:34:11;;;;;;;5.77;4.30;;;;;;;0.81;48.94;96853.25;4985417;28;20223;-73
2024/01/30 05:36:36;;;;;;;6.90;3.90;;;;;;;0.85;48.76;96858.25;4996395;28;20295;-74
2024/01/30 05:39:02;;;;;;;5.60;4.00;;;;;;;0.55;48.87;96848.84;4983909;28;20254;-73
2024/01/30 05:41:27;;;;;;;5.47;3.80;;;;;;;0.53;48.73;96848.03;4979362;28;20247;-72
2024/01/30 05:43:53;;;;;;;9.47;4.43;;;;;;;0.60;48.65;96854.75;4983648;28;20270;-74
2024/01/30 05:46:18;;;;;;;5.97;4.67;;;;;;;0.61;48.48;96852.09;4995974;28;20271;-73
2024/01/30 05:48:44;;;;;;;11.83;5.27;;;;;;;0.65;48.93;96855.44;4988324;28;20229;-74
2024/01/30 05:51:09;;;;;;;19.30;6.00;;;;;;;0.78;48.84;96854.19;5005856;28;20242;-72
2024/01/30 05:53:35;;;;;;;15.50;5.30;;;;;;;0.72;49.27;96848.31;5003524;28;20203;-72
2024/01/30 05:56:03;;;;;;;14.23;5.97;;;;;;;0.76;49.06;96850.78;4987108;28;20191;-74
2024/01/30 05:58:29;;;;;;;6.93;4.60;;;;;;;0.72;48.58;96850.91;4996454;28;20215;-75
2024/01/30 06:00:54;;;;;;;11.50;5.47;;;;;;;0.61;48.76;96846.91;5000382;28;20220;-74
2024/01/30 06:03:20;;;;;;;12.40;5.43;;;;;;;0.73;48.73;96848.28;4978616;28;20224;-75
2024/01/30 06:05:45;;;;;;;18.17;7.07;;;;;;;0.68;49.09;96850.19;4987639;28;20192;-73
2024/01/30 06:08:11;;;;;;;15.40;6.97;;;;;;;0.65;48.96;96853.69;4989488;28;20193;-74
2024/01/30 06:10:37;;;;;;;14.60;6.33;;;;;;;0.59;49.21;96855.66;4985622;28;20224;-74
2024/01/30 06:13:02;;;;;;;15.33;5.40;;;;;;;0.63;48.93;96857.22;4985322;28;20224;-75
2024/01/30 06:15:29;;;;;;;8.50;5.43;;;;;;;0.65;49.00;96860.63;4985069;28;20348;-74
2024/01/30 06:17:55;;;;;;;18.70;5.90;;;;;;;0.72;49.04;96849.16;4990330;28;20265;-73
2024/01/30 06:20:20;;;;;;;12.33;5.87;;;;;;;0.81;48.96;96856.69;5008179;28;20231;-73
2024/01/30 06:22:46;;;;;;;11.47;6.30;;;;;;;0.73;49.32;96861.25;4989481;28;20221;-73
2024/01/30 06:25:12;;;;;;;16.53;5.93;;;;;;;0.64;49.28;96871.84;4990702;28;20219;-75
2024/01/30 06:27:37;;;;;;;12.23;6.60;;;;;;;0.58;48.93;96867.72;4993916;28;20286;-73
2024/01/30 06:30:04;;;;;;;13.20;5.73;;;;;;;0.78;48.92;96859.38;4984451;28;20188;-74
2024/01/30 06:32:34;;;;;;;13.47;6.53;;;;;;;0.79;49.17;96866.22;4993115;28;20219;-74
2024/01/30 06:35:00;;;;;;;8.77;6.23;;;;;;;0.68;49.13;96864.88;4995149;28;20219;-75
2024/01/30 06:37:25;;;;;;;10.97;6.03;;;;;;;0.69;49.27;96864.81;4982495;28;20223;-76
2024/01/30 06:39:52;;;;;;;8.73;5.63;;;;;;;0.66;49.49;96860.56;4990855;28;20223;-74
2024/01/30 06:42:17;;;;;;;10.37;6.20;;;;;;;0.52;49.59;96870.50;4990402;28;20212;-72
2024/01/30 06:44:42;;;;;;;15.03;6.57;;;;;;;0.46;50.21;96867.25;4992091;28;20215;-73
2024/01/30 06:47:08;;;;;;;11.17;5.77;;;;;;;0.63;49.66;96870.19;4992468;28;20215;-73
2024/01/30 06:49:33;;;;;;;12.57;7.23;;;;;;;0.55;49.88;96866.97;4991807;28;20314;-72
2024/01/30 06:51:59;;;;;;;12.87;6.63;;;;;;;0.49;49.67;96859.41;4987502;28;20297;-72
2024/01/30 06:54:24;;;;;;;19.17;6.03;;;;;;;0.80;49.22;96867.94;4990925;28;20216;-72
2024/01/30 06:56:50;;;;;;;8.90;4.80;;;;;;;0.83;48.22;96867.00;4988959;28;20203;-70
2024/01/30 06:59:16;;;;;;;17.33;5.30;;;;;;;1.02;47.51;96869.88;4988115;28;20230;-71
2024/01/30 07:01:41;;;;;;;10.37;4.00;;;;;;;1.06;46.63;96876.63;4988178;28;20224;-70
2024/01/30 07:04:06;;;;;;;5.70;3.73;;;;;;;1.21;45.51;96873.56;4985523;28;20222;-73
2024/01/30 07:06:32;;;;;;;7.70;3.67;;;;;;;1.22;45.34;96874.41;4989123;28;20247;-73
2024/01/30 07:08:57;;;;;;;6.60;4.00;;;;;;;1.25;45.67;96877.72;4992250;28;20219;-72
2024/01/30 07:11:23;;;;;;;6.07;3.70;;;;;;;1.39;45.28;96873.84;4991194;28;20227;-75
2024/01/30 07:13:50;;;;;;;5.83;4.03;;;;;;;1.49;44.58;96872.66;4995200;28;20234;-78
2024/01/30 07:16:16;;;;;;;6.17;5.40;;;;;;;1.47;44.57;96864.06;4990927;28;20223;-74
2024/01/30 07:18:41;;;;;;;4.97;3.73;;;;;;;1.64;44.21;96868.72;4983794;28;20244;-74
2024/01/30 07:21:06;;;;;;;9.20;4.73;;;;;;;1.77;44.03;96868.22;5000418;28;20187;-75
2024/01/30 07:23:34;;;;;;;9.33;3.17;;;;;;;1.66;43.88;96865.16;5000037;28;20180;-75
2024/01/30 07:25:59;;;;;;;5.70;2.83;;;;;;;1.73;43.09;96871.81;4999483;28;20226;-75
2024/01/30 07:28:24;;;;;;;7.87;3.90;;;;;;;1.93;42.90;96868.53;4995439;28;20219;-74
2024/01/30 07:30:50;;;;;;;7.70;3.37;;;;;;;1.82;42.67;96859.44;4987658;28;20279;-72
2024/01/30 07:33:15;;;;;;;3.17;2.17;;;;;;;1.86;42.42;96874.84;4989584;28;20211;-73
2024/01/30 07:35:41;;;;;;;4.80;2.80;;;;;;;1.88;41.97;96864.44;4984146;28;20216;-73
2024/01/30 07:38:06;;;;;;;5.17;2.50;;;;;;;1.97;41.71;96869.28;5023998;28;20225;-75
2024/01/30 07:40:33;;;;;;;4.27;2.80;;;;;;;2.14;41.07;96864.34;5000052;28;20314;-72
2024/01/30 07:42:58;;;;;;;3.97;2.10;;;;;;;2.19;41.20;96856.38;4991386;28;20223;-72
2024/01/30 07:45:25;;;;;;;3.87;2.57;;;;;;;2.23;40.90;96864.91;4990322;28;20215;-72
2024/01/30 07:47:51;;;;;;;2.90;2.43;;;;;;;2.19;40.86;96861.56;4993352;28;20211;-75
2024/01/30 07:50:17;;;;;;;5.10;2.77;;;;;;;2.22;40.77;96866.69;5020501;28;20211;-73
2024/01/30 07:52:43;;;;;;;8.70;3.10;;;;;;;2.27;40.70;96858.69;5021986;28;20314;-71
2024/01/30 07:55:09;;;;;;;2.80;2.30;;;;;;;2.24;40.48;96853.63;4994879;28;20223;-71
2024/01/30 07:57:34;;;;;;;4.70;2.73;;;;;;;2.08;41.25;96866.31;4993199;28;20220;-71
2024/01/30 08:00:01;;;;;;;8.87;3.00;;;;;;;2.32;40.71;96870.59;4984674;28;20180;-74
2024/01/30 08:02:26;;;;;;;3.10;2.17;;;;;;;2.40;40.87;96865.13;5000306;28;20180;-74
2024/01/30 08:04:51;;;;;;;5.17;2.50;;;;;;;2.62;40.03;96860.00;4989000;28;20230;-74
2024/01/30 08:07:21;;;;;;;5.97;2.67;;;;;;;2.49;40.12;96856.19;4989064;28;20216;-76
2024/01/30 08:09:47;;;;;;;6.93;2.80;;;;;;;2.40;40.36;96854.75;4990913;28;20216;-76
2024/01/30 08:12:13;;;;;;;5.57;2.83;;;;;;;2.25;40.82;96855.34;4991097;28;20232;-74
2024/01/30 08:14:39;;;;;;;6.93;2.70;;;;;;;2.27;40.74;96859.53;4990224;28;20228;-75
2024/01/30 08:17:05;;;;;;;4.73;2.70;;;;;;;2.49;40.25;96856.19;4990929;28;20240;-75
2024/01/30 08:19:30;;;;;;;4.30;3.10;;;;;;;2.29;40.87;96862.09;4993427;28;20255;-71
2024/01/30 08:21:55;;;;;;;7.00;2.60;;;;;;;2.43;40.43;96854.63;5011847;28;20292;-76
2024/01/30 08:24:21;;;;;;;2.53;2.30;;;;;;;2.53;39.54;96855.97;5008694;28;20215;-74
2024/01/30 08:26:46;;;;;;;4.10;2.80;;;;;;;2.50;40.16;96860.47;4991977;28;20198;-74
2024/01/30 08:29:12;;;;;;;3.10;2.80;;;;;;;2.63;39.74;96854.72;4983490;28;20220;-74
2024/01/30 08:31:37;;;;;;;4.20;2.67;;;;;;;2.58;39.96;96861.84;4987318;28;20223;-75
2024/01/30 08:34:03;;;;;;;4.23;3.00;;;;;;;2.61;39.56;96860.88;4985005;28;20216;-76
2024/01/30 08:36:28;;;;;;;3.10;2.70;;;;;;;2.59;39.79;96860.97;4980166;28;20228;-73
2024/01/30 08:38:54;;;;;;;4.37;2.70;;;;;;;2.51;39.61;96870.75;4991878;28;20198;-74
2024/01/30 08:41:19;;;;;;;3.40;3.03;;;;;;;2.63;39.51;96861.69;4987976;28;20216;-73
2024/01/30 08:43:45;;;;;;;4.70;3.10;;;;;;;2.71;39.36;96854.44;4983540;28;20220;-71
2024/01/30 08:46:11;;;;;;;5.47;3.50;;;;;;;2.80;39.66;96872.25;5001814;28;20231;-70
2024/01/30 08:48:36;;;;;;;5.27;3.20;;;;;;;2.84;39.77;96865.22;4987891;28;20212;-73
2024/01/30 08:51:02;;;;;;;3.63;2.80;;;;;;;3.07;39.09;96872.97;4990481;28;20212;-72
2024/01/30 08:53:27;;;;;;;3.77;3.23;;;;;;;3.12;38.69;96882.31;4991040;28;20214;-74
2024/01/30 08:55:52;;;;;;;5.03;3.23;;;;;;;3.24;38.54;96874.06;5017228;28;20219;-70
2024/01/30 08:58:19;;;;;;;6.57;3.57;;;;;;;3.33;38.86;96881.47;5001726;28;20245;-76
2024/01/30 09:00:44;;;;;;;5.73;3.43;;;;;;;3.38;38.66;96878.69;5004286;28;20227;-77
2024/01/30 09:03:09;;;;;;;9.13;5.17;;;;;;;3.42;38.65;96880.25;4990776;28;20198;-75
2024/01/30 09:05:35;;;;;;;7.37;4.50;;;;;;;3.49;38.40;96879.94;4990531;28;20263;-73
2024/01/30 09:08:00;;;;;;;5.17;3.90;;;;;;;3.61;38.31;96875.13;4982599;28;20250;-69
2024/01/30 09:10:26;;;;;;;5.10;4.03;;;;;;;3.90;37.92;96871.31;4991698;28;20302;-77
2024/01/30 09:12:52;;;;;;;5.10;4.00;;;;;;;4.04;37.04;96874.19;4987481;28;20308;-71
2024/01/30 09:15:18;;;;;;;6.33;4.57;;;;;;;3.92;37.34;96872.94;4997814;28;20219;-72
2024/01/30 09:17:44;;;;;;;8.43;4.87;;;;;;;3.79;37.71;96874.38;4999612;28;20195;-69
2024/01/30 09:20:10;;;;;;;7.00;3.83;;;;;;;3.95;37.53;96869.34;5015507;28;20207;-76
2024/01/30 09:22:35;;;;;;;6.27;3.67;;;;;;;3.85;37.19;96866.31;4992291;28;20226;-75
2024/01/30 09:25:01;;;;;;;6.67;4.27;;;;;;;3.79;37.63;96852.72;4989112;28;20216;-74
2024/01/30 09:27:26;;;;;;;5.77;4.63;;;;;;;3.63;37.82;96855.09;4992270;28;20215;-72
2024/01/30 09:29:52;;;;;;;5.73;4.70;;;;;;;3.81;37.83;96862.13;4989924;28;20211;-72
2024/01/30 09:32:18;;;;;;;7.03;5.50;;;;;;;4.12;37.71;96843.44;4999414;28;20294;-72
2024/01/30 09:34:43;;;;;;;5.97;4.50;;;;;;;4.31;36.81;96850.44;4988315;28;20230;-71
2024/01/30 09:37:09;;;;;;;6.17;4.13;;;;;;;4.08;37.35;96854.91;4990092;28;20211;-77
2024/01/30 09:39:35;;;;;;;4.80;3.90;;;;;;;4.16;36.93;96858.00;4980441;28;20324;-74
2024/01/30 09:42:38;;;;;;;4.17;3.40;;;;;;;4.17;37.08;96845.81;4997567;28;20262;-75
2024/01/30 09:45:05;;;;;;;4.50;3.70;;;;;;;4.47;37.21;96837.59;4991621;28;20214;-75
2024/01/30 09:47:44;;;;;;;4.87;3.20;;;;;;;4.03;38.41;96846.44;4986783;28;20188;-74
2024/01/30 09:50:11;;;;;;;3.97;3.53;;;;;;;4.49;37.96;96838.34;4991052;28;20269;-75
2024/01/30 09:52:37;;;;;;;6.00;3.43;;;;;;;4.13;38.84;96846.91;5010697;28;20223;-75
2024/01/30 09:55:03;;;;;;;4.00;3.50;;;;;;;4.15;38.98;96845.06;4997729;28;20282;-76
2024/01/30 09:57:29;;;;;;;4.50;3.70;;;;;;;4.13;38.62;96852.09;4972702;28;20232;-74
2024/01/30 09:59:54;;;;;;;6.37;3.00;;;;;;;3.47;39.76;96840.13;4993960;28;20184;-75
2024/01/30 10:02:20;;;;;;;6.13;3.67;;;;;;;3.54;40.11;96854.59;4986531;28;20231;-73
2024/01/30 10:04:50;;;;;;;5.37;3.40;;;;;;;3.84;40.81;96841.19;4989775;28;20306;-70
2024/01/30 10:07:19;;;;;;;10.33;4.13;;;;;;;3.78;40.87;96833.66;4988599;28;20226;-70
2024/01/30 10:09:46;;;;;;;3.77;3.17;;;;;;;4.01;40.11;96832.66;4989824;28;20224;-70
2024/01/30 10:12:12;;;;;;;3.60;3.23;;;;;;;4.19;39.09;96829.22;4991033;28;20239;-70
2024/01/30 10:14:39;;;;;;;4.53;3.37;;;;;;;4.39;38.46;96828.34;4988114;28;20291;-74
2024/01/30 10:17:05;;;;;;;5.67;3.63;;;;;;;4.30;38.86;96823.53;4988117;28;20306;-72
2024/01/30 10:19:31;;;;;;;7.70;3.53;;;;;;;4.71;38.14;96840.81;4992995;28;20219;-73
2024/01/30 10:21:56;;;;;;;5.60;3.73;;;;;;;4.71;38.26;96828.63;4984872;28;20223;-75
2024/01/30 10:24:26;;;;;;;5.23;4.00;;;;;;;4.90;37.70;96833.81;4993241;28;20238;-74
2024/01/30 10:26:51;;;;;;;6.37;3.97;;;;;;;4.91;37.91;96819.88;4993558;28;20188;-73
2024/01/30 10:29:17;;;;;;;5.20;3.37;;;;;;;5.28;37.09;96833.75;4990758;28;20330;-75
2024/01/30 10:31:42;;;;;;;4.93;3.63;;;;;;;5.33;36.32;96825.69;4991054;28;20235;-74
2024/01/30 10:34:08;;;;;;;4.83;3.70;;;;;;;5.42;36.49;96825.25;4993639;28;20227;-75
2024/01/30 10:36:42;;;;;;;4.50;3.27;;;;;;;5.50;36.09;96825.69;4982133;28;20325;-74
2024/01/30 10:39:08;;;;;;;3.60;3.10;;;;;;;5.72;35.90;96826.31;4975385;28;20238;-75
2024/01/30 10:41:43;;;;;;;4.27;3.80;;;;;;;5.41;36.12;96820.94;4986111;28;20191;-75
2024/01/30 10:44:10;;;;;;;4.87;2.90;;;;;;;5.51;36.67;96830.84;4993748;28;20260;-74
2024/01/30 10:46:38;;;;;;;4.87;2.97;;;;;;;5.55;36.42;96826.31;5004622;28;20270;-76
2024/01/30 10:49:04;;;;;;;3.77;2.70;;;;;;;5.44;36.18;96812.97;5008090;28;20214;-74
2024/01/30 10:51:31;;;;;;;3.97;2.97;;;;;;;5.33;36.43;96815.28;4997090;28;20235;-75
2024/01/30 10:53:57;;;;;;;5.50;3.30;;;;;;;5.38;36.37;96818.50;4994434;28;20202;-74
2024/01/30 10:56:23;;;;;;;6.63;3.30;;;;;;;5.28;36.41;96813.72;4994908;28;20231;-75
2024/01/30 10:58:52;;;;;;;4.20;3.30;;;;;;;5.03;36.72;96811.47;4989713;28;20219;-75
2024/01/30 11:01:23;;;;;;;4.07;3.07;;;;;;;5.09;36.68;96807.72;4994680;28;20215;-75
2024/01/30 11:03:51;;;;;;;3.53;2.63;;;;;;;5.13;36.00;96806.63;5001295;28;20219;-74
2024/01/30 11:06:18;;;;;;;4.97;2.63;;;;;;;4.81;37.38;96797.75;4999169;28;20196;-74
2024/01/30 11:08:44;;;;;;;4.50;3.00;;;;;;;4.50;37.69;96790.56;4986185;28;20220;-74
2024/01/30 11:11:10;;;;;;;12.63;11.33;;;;;;;4.58;37.61;96796.25;5022300;28;20287;-75
2024/01/30 11:13:36;;;;;;;3.83;3.20;;;;;;;4.61;37.39;96790.88;4995317;28;20307;-76
2024/01/30 11:16:03;;;;;;;5.03;3.00;;;;;;;4.73;37.50;96798.16;4994041;28;20243;-74
2024/01/30 11:18:33;;;;;;;3.33;2.63;;;;;;;4.88;37.33;96795.72;4981108;28;20216;-75
2024/01/30 11:21:01;;;;;;;2.80;2.50;;;;;;;4.45;38.33;96787.31;4990199;28;20188;-73
2024/01/30 11:23:30;;;;;;;4.07;2.87;;;;;;;4.71;38.01;96793.91;5003557;28;20191;-74
2024/01/30 11:25:57;;;;;;;7.03;3.17;;;;;;;4.89;37.25;96794.78;4989396;28;20216;-75
2024/01/30 11:28:23;;;;;;;4.03;3.07;;;;;;;4.76;37.72;96787.56;4988318;28;20283;-74
2024/01/30 11:30:50;;;;;;;6.57;3.80;;;;;;;4.97;37.66;96787.44;4988014;28;20251;-74
2024/01/30 11:33:27;;;;;;;3.83;2.80;;;;;;;4.97;37.51;96795.25;5021140;28;20207;-71
2024/01/30 11:35:53;;;;;;;3.17;2.90;;;;;;;4.69;37.95;96796.59;5013455;28;20246;-76